sensor_id;sensor_type;location;lat;lon;timestamp;P1;durP1;ratioP1;P2;durP2;ratioP2
7795;SDS011;3942;51.518;6.912;2023-02-15T00:03:54;31.63;;;15.90;;
7795;SDS011;3942;51.518;6.912;2023-02-15T00:08:56;26.63;;;15.75;;
7795;SDS011;3942;51.518;6.912;2023-02-15T00:14:00;29.55;;;17.17;;
7795;SDS011;3942;51.518;6.912;2023-02-15T00:19:02;29.35;;;16.85;;
7795;SDS011;3942;51.518;6.912;2023-02-15T00:24:05;33.40;;;17.02;;
7795;SDS011;3942;51.518;6.912;2023-02-15T00:29:09;28.67;;;16.15;;
7795;SDS011;3942;51.518;6.912;2023-02-15T00:34:13;30.92;;;17.10;;
7795;SDS011;3942;51.518;6.912;2023-02-15T00:39:16;29.55;;;16.38;;
7795;SDS011;3942;51.518;6.912;2023-02-15T00:44:20;27.67;;;16.70;;
7795;SDS011;3942;51.518;6.912;2023-02-15T00:49:22;32.42;;;16.95;;
7795;SDS011;3942;51.518;6.912;2023-02-15T00:54:24;32.00;;;16.80;;
7795;SDS011;3942;51.518;6.912;2023-02-15T00:59:27;32.85;;;16.70;;
7795;SDS011;3942;51.518;6.912;2023-02-15T01:04:29;33.38;;;16.92;;
7795;SDS011;3942;51.518;6.912;2023-02-15T01:09:31;32.63;;;17.38;;
7795;SDS011;3942;51.518;6.912;2023-02-15T01:14:35;29.20;;;17.40;;
7795;SDS011;3942;51.518;6.912;2023-02-15T01:19:37;29.85;;;16.35;;
7795;SDS011;3942;51.518;6.912;2023-02-15T01:24:39;31.98;;;17.88;;
7795;SDS011;3942;51.518;6.912;2023-02-15T01:29:42;36.80;;;17.75;;
7795;SDS011;3942;51.518;6.912;2023-02-15T01:34:44;36.72;;;18.90;;
7795;SDS011;3942;51.518;6.912;2023-02-15T01:39:46;34.28;;;17.50;;
7795;SDS011;3942;51.518;6.912;2023-02-15T01:44:51;33.22;;;17.80;;
7795;SDS011;3942;51.518;6.912;2023-02-15T01:49:56;31.73;;;17.80;;
7795;SDS011;3942;51.518;6.912;2023-02-15T01:55:03;39.05;;;20.42;;
7795;SDS011;3942;51.518;6.912;2023-02-15T02:00:07;36.40;;;18.27;;
7795;SDS011;3942;51.518;6.912;2023-02-15T02:05:10;35.15;;;17.70;;
7795;SDS011;3942;51.518;6.912;2023-02-15T02:10:13;35.92;;;17.88;;
7795;SDS011;3942;51.518;6.912;2023-02-15T02:15:18;40.65;;;17.85;;
7795;SDS011;3942;51.518;6.912;2023-02-15T02:20:28;33.58;;;17.90;;
7795;SDS011;3942;51.518;6.912;2023-02-15T02:25:49;32.85;;;17.52;;
7795;SDS011;3942;51.518;6.912;2023-02-15T02:36:33;33.22;;;18.50;;
7795;SDS011;3942;51.518;6.912;2023-02-15T02:41:38;36.47;;;19.67;;
7795;SDS011;3942;51.518;6.912;2023-02-15T02:46:48;37.05;;;19.40;;
7795;SDS011;3942;51.518;6.912;2023-02-15T02:51:58;36.40;;;19.25;;
7795;SDS011;3942;51.518;6.912;2023-02-15T02:57:02;35.53;;;17.50;;
7795;SDS011;3942;51.518;6.912;2023-02-15T03:02:07;32.88;;;17.33;;
7795;SDS011;3942;51.518;6.912;2023-02-15T03:07:14;35.78;;;18.92;;
7795;SDS011;3942;51.518;6.912;2023-02-15T03:12:22;36.95;;;19.13;;
7795;SDS011;3942;51.518;6.912;2023-02-15T03:17:29;35.08;;;17.83;;
7795;SDS011;3942;51.518;6.912;2023-02-15T03:22:33;35.38;;;17.83;;
7795;SDS011;3942;51.518;6.912;2023-02-15T03:27:38;37.35;;;18.10;;
7795;SDS011;3942;51.518;6.912;2023-02-15T03:32:44;35.95;;;18.88;;
7795;SDS011;3942;51.518;6.912;2023-02-15T03:37:51;38.53;;;19.25;;
7795;SDS011;3942;51.518;6.912;2023-02-15T03:42:55;32.70;;;18.27;;
7795;SDS011;3942;51.518;6.912;2023-02-15T03:48:00;36.92;;;19.98;;
7795;SDS011;3942;51.518;6.912;2023-02-15T03:53:06;34.10;;;18.23;;
7795;SDS011;3942;51.518;6.912;2023-02-15T03:58:11;38.00;;;18.35;;
7795;SDS011;3942;51.518;6.912;2023-02-15T04:03:31;34.88;;;18.52;;
7795;SDS011;3942;51.518;6.912;2023-02-15T04:08:39;36.25;;;18.67;;
7795;SDS011;3942;51.518;6.912;2023-02-15T04:13:58;39.63;;;19.50;;
7795;SDS011;3942;51.518;6.912;2023-02-15T04:19:20;35.22;;;19.05;;
7795;SDS011;3942;51.518;6.912;2023-02-15T04:24:41;37.80;;;19.25;;
7795;SDS011;3942;51.518;6.912;2023-02-15T04:30:01;36.55;;;18.35;;
7795;SDS011;3942;51.518;6.912;2023-02-15T04:35:04;38.20;;;19.58;;
7795;SDS011;3942;51.518;6.912;2023-02-15T04:40:09;41.05;;;20.70;;
7795;SDS011;3942;51.518;6.912;2023-02-15T04:45:11;39.10;;;19.08;;
7795;SDS011;3942;51.518;6.912;2023-02-15T04:50:13;40.20;;;19.77;;
7795;SDS011;3942;51.518;6.912;2023-02-15T04:55:17;38.90;;;20.63;;
7795;SDS011;3942;51.518;6.912;2023-02-15T05:00:19;38.08;;;19.58;;
7795;SDS011;3942;51.518;6.912;2023-02-15T05:05:21;50.63;;;22.73;;
7795;SDS011;3942;51.518;6.912;2023-02-15T05:10:25;43.53;;;20.15;;
7795;SDS011;3942;51.518;6.912;2023-02-15T05:15:27;51.75;;;26.08;;
7795;SDS011;3942;51.518;6.912;2023-02-15T05:20:29;36.90;;;18.58;;
7795;SDS011;3942;51.518;6.912;2023-02-15T05:25:32;37.20;;;20.90;;
7795;SDS011;3942;51.518;6.912;2023-02-15T05:30:57;38.20;;;20.23;;
7795;SDS011;3942;51.518;6.912;2023-02-15T05:36:01;37.17;;;19.33;;
7795;SDS011;3942;51.518;6.912;2023-02-15T05:41:08;43.40;;;20.48;;
7795;SDS011;3942;51.518;6.912;2023-02-15T05:46:11;43.22;;;21.70;;
7795;SDS011;3942;51.518;6.912;2023-02-15T05:51:13;37.25;;;20.40;;
7795;SDS011;3942;51.518;6.912;2023-02-15T05:56:18;52.63;;;25.17;;
7795;SDS011;3942;51.518;6.912;2023-02-15T06:01:20;38.25;;;19.65;;
7795;SDS011;3942;51.518;6.912;2023-02-15T06:06:22;37.60;;;18.80;;
7795;SDS011;3942;51.518;6.912;2023-02-15T06:11:26;37.00;;;19.55;;
7795;SDS011;3942;51.518;6.912;2023-02-15T06:16:28;43.97;;;21.23;;
7795;SDS011;3942;51.518;6.912;2023-02-15T06:21:30;42.92;;;21.60;;
7795;SDS011;3942;51.518;6.912;2023-02-15T06:26:34;45.67;;;22.85;;
7795;SDS011;3942;51.518;6.912;2023-02-15T06:31:36;50.78;;;23.73;;
7795;SDS011;3942;51.518;6.912;2023-02-15T06:36:38;42.13;;;21.73;;
7795;SDS011;3942;51.518;6.912;2023-02-15T06:41:41;39.72;;;20.63;;
7795;SDS011;3942;51.518;6.912;2023-02-15T06:46:43;43.75;;;21.98;;
7795;SDS011;3942;51.518;6.912;2023-02-15T06:51:46;45.15;;;21.45;;
7795;SDS011;3942;51.518;6.912;2023-02-15T06:56:49;47.88;;;25.23;;
7795;SDS011;3942;51.518;6.912;2023-02-15T07:01:51;49.92;;;23.48;;
7795;SDS011;3942;51.518;6.912;2023-02-15T07:06:53;37.78;;;20.88;;
7795;SDS011;3942;51.518;6.912;2023-02-15T07:11:56;52.33;;;24.13;;
7795;SDS011;3942;51.518;6.912;2023-02-15T07:17:16;48.15;;;23.83;;
7795;SDS011;3942;51.518;6.912;2023-02-15T07:22:18;48.63;;;22.05;;
7795;SDS011;3942;51.518;6.912;2023-02-15T07:27:21;45.95;;;22.38;;
7795;SDS011;3942;51.518;6.912;2023-02-15T07:32:23;47.42;;;23.85;;
7795;SDS011;3942;51.518;6.912;2023-02-15T07:37:29;58.38;;;31.90;;
7795;SDS011;3942;51.518;6.912;2023-02-15T07:42:32;43.05;;;22.02;;
7795;SDS011;3942;51.518;6.912;2023-02-15T07:47:34;39.28;;;20.67;;
7795;SDS011;3942;51.518;6.912;2023-02-15T07:52:36;39.65;;;21.58;;
7795;SDS011;3942;51.518;6.912;2023-02-15T07:57:42;35.28;;;20.35;;
7795;SDS011;3942;51.518;6.912;2023-02-15T08:02:47;59.00;;;28.77;;
7795;SDS011;3942;51.518;6.912;2023-02-15T08:08:10;44.17;;;22.73;;
7795;SDS011;3942;51.518;6.912;2023-02-15T08:13:30;51.20;;;27.02;;
7795;SDS011;3942;51.518;6.912;2023-02-15T08:18:32;44.10;;;23.75;;
7795;SDS011;3942;51.518;6.912;2023-02-15T08:23:35;40.63;;;20.88;;
7795;SDS011;3942;51.518;6.912;2023-02-15T08:28:38;37.30;;;21.40;;
7795;SDS011;3942;51.518;6.912;2023-02-15T08:33:41;38.60;;;22.15;;
7795;SDS011;3942;51.518;6.912;2023-02-15T08:38:44;36.35;;;20.33;;
7795;SDS011;3942;51.518;6.912;2023-02-15T08:43:48;40.28;;;20.15;;
7795;SDS011;3942;51.518;6.912;2023-02-15T08:48:52;33.53;;;19.08;;
7795;SDS011;3942;51.518;6.912;2023-02-15T08:53:54;38.38;;;21.42;;
7795;SDS011;3942;51.518;6.912;2023-02-15T08:58:58;32.20;;;18.75;;
7795;SDS011;3942;51.518;6.912;2023-02-15T09:04:00;36.25;;;18.27;;
7795;SDS011;3942;51.518;6.912;2023-02-15T09:09:05;34.20;;;19.73;;
7795;SDS011;3942;51.518;6.912;2023-02-15T09:14:10;31.50;;;19.55;;
7795;SDS011;3942;51.518;6.912;2023-02-15T09:19:13;33.70;;;16.85;;
7795;SDS011;3942;51.518;6.912;2023-02-15T09:24:16;30.27;;;18.00;;
7795;SDS011;3942;51.518;6.912;2023-02-15T09:29:19;31.65;;;17.17;;
7795;SDS011;3942;51.518;6.912;2023-02-15T09:34:22;29.42;;;16.48;;
7795;SDS011;3942;51.518;6.912;2023-02-15T09:39:25;30.80;;;16.95;;
7795;SDS011;3942;51.518;6.912;2023-02-15T09:44:32;28.38;;;16.98;;
7795;SDS011;3942;51.518;6.912;2023-02-15T09:49:49;30.67;;;17.55;;
7795;SDS011;3942;51.518;6.912;2023-02-15T09:54:58;27.73;;;16.20;;
7795;SDS011;3942;51.518;6.912;2023-02-15T10:00:24;27.33;;;16.45;;
7795;SDS011;3942;51.518;6.912;2023-02-15T10:05:31;25.30;;;15.00;;
7795;SDS011;3942;51.518;6.912;2023-02-15T10:10:48;26.57;;;14.70;;
7795;SDS011;3942;51.518;6.912;2023-02-15T10:16:04;24.85;;;15.48;;
7795;SDS011;3942;51.518;6.912;2023-02-15T10:21:16;27.58;;;15.85;;
7795;SDS011;3942;51.518;6.912;2023-02-15T10:26:26;27.30;;;14.45;;
7795;SDS011;3942;51.518;6.912;2023-02-15T10:31:34;27.60;;;15.23;;
7795;SDS011;3942;51.518;6.912;2023-02-15T10:36:44;27.67;;;14.55;;
7795;SDS011;3942;51.518;6.912;2023-02-15T10:41:52;26.70;;;14.73;;
7795;SDS011;3942;51.518;6.912;2023-02-15T10:47:02;27.80;;;15.32;;
7795;SDS011;3942;51.518;6.912;2023-02-15T10:52:12;29.25;;;16.10;;
7795;SDS011;3942;51.518;6.912;2023-02-15T10:57:19;21.83;;;13.18;;
7795;SDS011;3942;51.518;6.912;2023-02-15T11:02:30;26.27;;;13.33;;
7795;SDS011;3942;51.518;6.912;2023-02-15T11:07:41;26.02;;;14.40;;
7795;SDS011;3942;51.518;6.912;2023-02-15T11:12:44;24.45;;;13.32;;
7795;SDS011;3942;51.518;6.912;2023-02-15T11:17:50;24.30;;;12.90;;
7795;SDS011;3942;51.518;6.912;2023-02-15T11:22:57;25.65;;;15.57;;
7795;SDS011;3942;51.518;6.912;2023-02-15T11:28:03;23.80;;;13.00;;
7795;SDS011;3942;51.518;6.912;2023-02-15T11:33:12;27.50;;;13.43;;
7795;SDS011;3942;51.518;6.912;2023-02-15T11:38:18;20.85;;;12.45;;
7795;SDS011;3942;51.518;6.912;2023-02-15T11:43:23;22.20;;;13.27;;
7795;SDS011;3942;51.518;6.912;2023-02-15T11:48:29;21.60;;;12.77;;
7795;SDS011;3942;51.518;6.912;2023-02-15T11:53:32;23.75;;;12.25;;
7795;SDS011;3942;51.518;6.912;2023-02-15T11:58:36;25.38;;;14.10;;
7795;SDS011;3942;51.518;6.912;2023-02-15T12:03:43;24.77;;;13.20;;
7795;SDS011;3942;51.518;6.912;2023-02-15T12:08:48;24.90;;;12.93;;
7795;SDS011;3942;51.518;6.912;2023-02-15T12:13:55;26.15;;;12.90;;
7795;SDS011;3942;51.518;6.912;2023-02-15T12:19:00;22.38;;;13.27;;
7795;SDS011;3942;51.518;6.912;2023-02-15T12:24:03;20.90;;;11.63;;
7795;SDS011;3942;51.518;6.912;2023-02-15T12:29:18;25.25;;;13.55;;
7795;SDS011;3942;51.518;6.912;2023-02-15T12:34:25;24.75;;;13.13;;
7795;SDS011;3942;51.518;6.912;2023-02-15T12:39:29;29.13;;;16.83;;
7795;SDS011;3942;51.518;6.912;2023-02-15T12:44:32;31.48;;;16.30;;
7795;SDS011;3942;51.518;6.912;2023-02-15T12:49:37;25.73;;;12.77;;
7795;SDS011;3942;51.518;6.912;2023-02-15T12:54:40;26.67;;;15.48;;
7795;SDS011;3942;51.518;6.912;2023-02-15T12:59:49;25.08;;;12.52;;
7795;SDS011;3942;51.518;6.912;2023-02-15T13:04:54;23.77;;;12.52;;
7795;SDS011;3942;51.518;6.912;2023-02-15T13:09:57;23.73;;;12.50;;
7795;SDS011;3942;51.518;6.912;2023-02-15T13:15:00;25.92;;;12.63;;
7795;SDS011;3942;51.518;6.912;2023-02-15T13:20:09;26.73;;;12.80;;
7795;SDS011;3942;51.518;6.912;2023-02-15T13:25:18;24.35;;;11.45;;
7795;SDS011;3942;51.518;6.912;2023-02-15T13:30:25;26.10;;;12.85;;
7795;SDS011;3942;51.518;6.912;2023-02-15T13:35:32;23.63;;;13.20;;
7795;SDS011;3942;51.518;6.912;2023-02-15T13:40:40;24.42;;;12.38;;
7795;SDS011;3942;51.518;6.912;2023-02-15T13:45:49;26.60;;;12.75;;
7795;SDS011;3942;51.518;6.912;2023-02-15T13:50:59;27.88;;;14.65;;
7795;SDS011;3942;51.518;6.912;2023-02-15T13:56:11;24.90;;;12.18;;
7795;SDS011;3942;51.518;6.912;2023-02-15T14:01:20;27.02;;;12.23;;
7795;SDS011;3942;51.518;6.912;2023-02-15T14:06:43;25.02;;;11.63;;
7795;SDS011;3942;51.518;6.912;2023-02-15T14:11:50;28.75;;;13.73;;
7795;SDS011;3942;51.518;6.912;2023-02-15T14:17:01;25.85;;;11.77;;
7795;SDS011;3942;51.518;6.912;2023-02-15T14:22:07;24.58;;;11.65;;
7795;SDS011;3942;51.518;6.912;2023-02-15T14:27:15;29.40;;;13.75;;
7795;SDS011;3942;51.518;6.912;2023-02-15T14:32:21;27.00;;;12.23;;
7795;SDS011;3942;51.518;6.912;2023-02-15T14:37:33;25.90;;;12.35;;
7795;SDS011;3942;51.518;6.912;2023-02-15T14:42:43;25.88;;;12.45;;
7795;SDS011;3942;51.518;6.912;2023-02-15T14:47:48;30.42;;;14.25;;
7795;SDS011;3942;51.518;6.912;2023-02-15T14:58:15;25.48;;;12.25;;
7795;SDS011;3942;51.518;6.912;2023-02-15T15:03:19;30.45;;;12.93;;
7795;SDS011;3942;51.518;6.912;2023-02-15T15:08:26;27.35;;;13.52;;
7795;SDS011;3942;51.518;6.912;2023-02-15T15:13:38;27.58;;;13.02;;
7795;SDS011;3942;51.518;6.912;2023-02-15T15:18:42;28.95;;;13.43;;
7795;SDS011;3942;51.518;6.912;2023-02-15T15:23:45;27.15;;;13.48;;
7795;SDS011;3942;51.518;6.912;2023-02-15T15:28:57;30.80;;;12.82;;
7795;SDS011;3942;51.518;6.912;2023-02-15T15:34:15;24.42;;;11.55;;
7795;SDS011;3942;51.518;6.912;2023-02-15T15:45:04;25.23;;;12.80;;
7795;SDS011;3942;51.518;6.912;2023-02-15T15:50:11;25.08;;;11.15;;
7795;SDS011;3942;51.518;6.912;2023-02-15T15:55:15;21.50;;;10.93;;
7795;SDS011;3942;51.518;6.912;2023-02-15T16:00:27;22.65;;;11.45;;
7795;SDS011;3942;51.518;6.912;2023-02-15T16:05:35;27.17;;;13.35;;
7795;SDS011;3942;51.518;6.912;2023-02-15T16:10:38;23.52;;;10.68;;
7795;SDS011;3942;51.518;6.912;2023-02-15T16:15:43;29.70;;;15.60;;
7795;SDS011;3942;51.518;6.912;2023-02-15T16:20:50;32.47;;;17.75;;
7795;SDS011;3942;51.518;6.912;2023-02-15T16:25:55;24.38;;;12.30;;
7795;SDS011;3942;51.518;6.912;2023-02-15T16:31:06;22.65;;;11.60;;
7795;SDS011;3942;51.518;6.912;2023-02-15T16:36:19;26.23;;;12.25;;
7795;SDS011;3942;51.518;6.912;2023-02-15T16:41:22;36.67;;;20.20;;
7795;SDS011;3942;51.518;6.912;2023-02-15T16:46:29;26.73;;;14.00;;
7795;SDS011;3942;51.518;6.912;2023-02-15T16:51:33;26.90;;;13.73;;
7795;SDS011;3942;51.518;6.912;2023-02-15T16:56:35;23.83;;;13.15;;
7795;SDS011;3942;51.518;6.912;2023-02-15T17:01:40;24.73;;;12.52;;
7795;SDS011;3942;51.518;6.912;2023-02-15T17:06:54;26.80;;;12.45;;
7795;SDS011;3942;51.518;6.912;2023-02-15T17:11:59;22.13;;;11.60;;
7795;SDS011;3942;51.518;6.912;2023-02-15T17:17:06;22.60;;;11.52;;
7795;SDS011;3942;51.518;6.912;2023-02-15T17:22:16;22.73;;;11.80;;
7795;SDS011;3942;51.518;6.912;2023-02-15T17:27:20;31.23;;;14.75;;
7795;SDS011;3942;51.518;6.912;2023-02-15T17:32:26;22.45;;;12.57;;
7795;SDS011;3942;51.518;6.912;2023-02-15T17:37:30;25.05;;;13.00;;
7795;SDS011;3942;51.518;6.912;2023-02-15T17:42:42;25.42;;;13.98;;
7795;SDS011;3942;51.518;6.912;2023-02-15T17:47:46;20.90;;;11.43;;
7795;SDS011;3942;51.518;6.912;2023-02-15T17:52:48;22.83;;;12.38;;
7795;SDS011;3942;51.518;6.912;2023-02-15T17:57:51;21.27;;;12.88;;
7795;SDS011;3942;51.518;6.912;2023-02-15T18:02:54;25.70;;;14.35;;
7795;SDS011;3942;51.518;6.912;2023-02-15T18:08:15;29.33;;;15.50;;
7795;SDS011;3942;51.518;6.912;2023-02-15T18:13:35;23.30;;;12.50;;
7795;SDS011;3942;51.518;6.912;2023-02-15T18:18:38;25.48;;;12.65;;
7795;SDS011;3942;51.518;6.912;2023-02-15T18:23:40;25.67;;;14.55;;
7795;SDS011;3942;51.518;6.912;2023-02-15T18:28:42;26.05;;;14.07;;
7795;SDS011;3942;51.518;6.912;2023-02-15T18:33:46;26.40;;;13.60;;
7795;SDS011;3942;51.518;6.912;2023-02-15T18:38:50;23.40;;;13.15;;
7795;SDS011;3942;51.518;6.912;2023-02-15T18:43:53;22.80;;;12.10;;
7795;SDS011;3942;51.518;6.912;2023-02-15T18:48:57;27.63;;;15.27;;
7795;SDS011;3942;51.518;6.912;2023-02-15T18:53:59;23.45;;;14.13;;
7795;SDS011;3942;51.518;6.912;2023-02-15T18:59:02;26.58;;;14.05;;
7795;SDS011;3942;51.518;6.912;2023-02-15T19:04:05;26.00;;;13.98;;
7795;SDS011;3942;51.518;6.912;2023-02-15T19:09:08;25.75;;;14.20;;
7795;SDS011;3942;51.518;6.912;2023-02-15T19:14:19;25.63;;;13.35;;
7795;SDS011;3942;51.518;6.912;2023-02-15T19:19:24;24.42;;;14.88;;
7795;SDS011;3942;51.518;6.912;2023-02-15T19:24:30;28.88;;;15.32;;
7795;SDS011;3942;51.518;6.912;2023-02-15T19:29:39;24.63;;;13.23;;
7795;SDS011;3942;51.518;6.912;2023-02-15T19:34:42;24.65;;;13.95;;
7795;SDS011;3942;51.518;6.912;2023-02-15T19:39:44;27.63;;;14.13;;
7795;SDS011;3942;51.518;6.912;2023-02-15T19:44:47;24.20;;;12.80;;
7795;SDS011;3942;51.518;6.912;2023-02-15T19:49:50;24.60;;;14.10;;
7795;SDS011;3942;51.518;6.912;2023-02-15T19:54:54;28.50;;;13.68;;
7795;SDS011;3942;51.518;6.912;2023-02-15T19:59:56;29.25;;;14.63;;
7795;SDS011;3942;51.518;6.912;2023-02-15T20:05:01;25.48;;;13.40;;
7795;SDS011;3942;51.518;6.912;2023-02-15T20:10:03;28.27;;;14.55;;
7795;SDS011;3942;51.518;6.912;2023-02-15T20:15:17;25.88;;;14.65;;
7795;SDS011;3942;51.518;6.912;2023-02-15T20:20:22;25.08;;;14.75;;
7795;SDS011;3942;51.518;6.912;2023-02-15T20:25:27;23.90;;;14.07;;
7795;SDS011;3942;51.518;6.912;2023-02-15T20:30:30;35.28;;;21.65;;
7795;SDS011;3942;51.518;6.912;2023-02-15T20:35:34;28.50;;;14.05;;
7795;SDS011;3942;51.518;6.912;2023-02-15T20:40:36;44.45;;;23.75;;
7795;SDS011;3942;51.518;6.912;2023-02-15T20:45:58;23.58;;;13.80;;
7795;SDS011;3942;51.518;6.912;2023-02-15T20:51:02;25.17;;;13.90;;
7795;SDS011;3942;51.518;6.912;2023-02-15T20:56:04;24.33;;;15.25;;
7795;SDS011;3942;51.518;6.912;2023-02-15T21:01:08;24.80;;;13.65;;
7795;SDS011;3942;51.518;6.912;2023-02-15T21:06:13;25.75;;;14.65;;
7795;SDS011;3942;51.518;6.912;2023-02-15T21:11:17;29.15;;;15.50;;
7795;SDS011;3942;51.518;6.912;2023-02-15T21:16:19;26.17;;;16.02;;
7795;SDS011;3942;51.518;6.912;2023-02-15T21:21:23;30.52;;;16.88;;
7795;SDS011;3942;51.518;6.912;2023-02-15T21:26:25;28.67;;;14.45;;
7795;SDS011;3942;51.518;6.912;2023-02-15T21:31:27;28.40;;;15.68;;
7795;SDS011;3942;51.518;6.912;2023-02-15T21:36:31;41.03;;;22.65;;
7795;SDS011;3942;51.518;6.912;2023-02-15T21:41:33;25.00;;;15.35;;
7795;SDS011;3942;51.518;6.912;2023-02-15T21:46:49;25.75;;;15.60;;
7795;SDS011;3942;51.518;6.912;2023-02-15T21:52:10;30.42;;;16.48;;
7795;SDS011;3942;51.518;6.912;2023-02-15T21:57:14;26.73;;;15.52;;
7795;SDS011;3942;51.518;6.912;2023-02-15T22:02:23;29.75;;;16.67;;
7795;SDS011;3942;51.518;6.912;2023-02-15T22:07:28;26.98;;;16.52;;
7795;SDS011;3942;51.518;6.912;2023-02-15T22:12:31;28.05;;;15.88;;
7795;SDS011;3942;51.518;6.912;2023-02-15T22:17:33;29.77;;;16.65;;
7795;SDS011;3942;51.518;6.912;2023-02-15T22:22:36;31.92;;;17.50;;
7795;SDS011;3942;51.518;6.912;2023-02-15T22:27:39;32.72;;;17.58;;
7795;SDS011;3942;51.518;6.912;2023-02-15T22:32:41;31.27;;;16.67;;
7795;SDS011;3942;51.518;6.912;2023-02-15T22:37:45;29.27;;;15.40;;
7795;SDS011;3942;51.518;6.912;2023-02-15T22:42:48;34.80;;;17.63;;
7795;SDS011;3942;51.518;6.912;2023-02-15T22:47:51;31.60;;;17.13;;
7795;SDS011;3942;51.518;6.912;2023-02-15T22:52:57;32.10;;;18.20;;
7795;SDS011;3942;51.518;6.912;2023-02-15T22:58:01;35.63;;;18.50;;
7795;SDS011;3942;51.518;6.912;2023-02-15T23:03:08;34.45;;;18.30;;
7795;SDS011;3942;51.518;6.912;2023-02-15T23:08:12;32.42;;;17.65;;
7795;SDS011;3942;51.518;6.912;2023-02-15T23:13:16;34.85;;;18.70;;
7795;SDS011;3942;51.518;6.912;2023-02-15T23:18:23;31.42;;;17.23;;
7795;SDS011;3942;51.518;6.912;2023-02-15T23:23:28;33.40;;;18.13;;
7795;SDS011;3942;51.518;6.912;2023-02-15T23:28:33;29.83;;;17.15;;
7795;SDS011;3942;51.518;6.912;2023-02-15T23:33:35;32.58;;;19.42;;
7795;SDS011;3942;51.518;6.912;2023-02-15T23:38:39;33.00;;;18.27;;
7795;SDS011;3942;51.518;6.912;2023-02-15T23:43:42;34.80;;;18.80;;
7795;SDS011;3942;51.518;6.912;2023-02-15T23:48:44;33.70;;;17.63;;
7795;SDS011;3942;51.518;6.912;2023-02-15T23:53:47;35.67;;;17.95;;
7795;SDS011;3942;51.518;6.912;2023-02-15T23:58:50;34.95;;;19.23;;
